createdAt,value
2017-09-25T00:01:13.908Z,76.77
2017-09-25T00:03:45.016Z,76.85
2017-09-25T00:06:16.125Z,77.00
2017-09-25T00:08:47.501Z,77.11
2017-09-25T00:11:18.612Z,77.27
2017-09-25T00:13:49.688Z,77.36
2017-09-25T00:16:21.091Z,77.51
2017-09-25T00:18:52.196Z,77.69
2017-09-25T00:21:23.273Z,77.81
2017-09-25T00:23:54.698Z,77.98
2017-09-25T00:26:25.940Z,78.13
2017-09-25T00:28:57.238Z,78.35
2017-09-25T00:31:28.376Z,78.58
2017-09-25T00:33:59.779Z,78.66
2017-09-25T00:36:32.421Z,78.72
2017-09-25T00:39:03.997Z,78.82
2017-09-25T00:41:37.270Z,78.96
2017-09-25T00:44:08.343Z,78.96
2017-09-25T00:46:40.392Z,79.05
2017-09-25T00:49:12.780Z,79.10
2017-09-25T00:51:44.017Z,79.25
2017-09-25T00:54:15.204Z,79.28
2017-09-25T00:56:46.493Z,79.19
2017-09-25T00:59:26.455Z,79.22
2017-09-25T01:02:06.541Z,79.19
2017-09-25T01:04:46.846Z,79.20
2017-09-25T01:07:17.970Z,79.11
2017-09-25T01:09:49.409Z,79.07
2017-09-25T01:12:20.914Z,78.95
2017-09-25T01:14:52.315Z,78.92
2017-09-25T01:17:23.349Z,78.77
2017-09-25T01:19:54.541Z,78.78
2017-09-25T01:22:25.648Z,78.64
2017-09-25T01:24:56.787Z,78.63
2017-09-25T01:27:27.875Z,78.65
2017-09-25T01:29:59.235Z,78.62
2017-09-25T01:32:31.195Z,78.64
2017-09-25T01:35:03.107Z,78.60
2017-09-25T01:37:36.544Z,78.64
2017-09-25T01:40:07.668Z,78.60
2017-09-25T01:42:38.900Z,78.46
2017-09-25T01:45:10.263Z,78.38
2017-09-25T01:47:42.699Z,78.27
2017-09-25T01:50:14.742Z,78.27
2017-09-25T01:52:49.471Z,78.28
2017-09-25T01:55:20.644Z,78.41
2017-09-25T01:57:51.743Z,78.59
2017-09-25T02:00:23.138Z,78.72
2017-09-25T02:02:54.237Z,78.96
2017-09-25T02:05:25.336Z,79.19
2017-09-25T02:07:56.463Z,79.36
2017-09-25T02:10:27.605Z,79.71
2017-09-25T02:12:58.708Z,79.98
2017-09-25T02:15:30.083Z,80.23
2017-09-25T02:18:01.297Z,80.41
2017-09-25T02:20:33.992Z,80.62
2017-09-25T02:23:05.194Z,80.82
2017-09-25T02:25:36.462Z,81.06
2017-09-25T02:28:07.529Z,81.19
2017-09-25T02:30:39.459Z,81.35
2017-09-25T02:33:10.882Z,81.44
2017-09-25T02:35:42.048Z,81.45
2017-09-25T02:38:13.425Z,81.48
2017-09-25T02:40:44.595Z,81.75
2017-09-25T02:43:15.634Z,81.99
2017-09-25T02:45:47.974Z,82.08
2017-09-25T02:48:19.136Z,82.19
2017-09-25T02:50:50.217Z,82.37
2017-09-25T02:53:21.405Z,82.42
2017-09-25T02:55:52.508Z,82.56
2017-09-25T02:58:24.880Z,82.59
2017-09-25T03:00:55.931Z,82.61
2017-09-25T03:03:27.310Z,82.77
2017-09-25T03:05:58.448Z,82.88
2017-09-25T03:08:29.521Z,82.91
2017-09-25T03:11:00.907Z,82.91
2017-09-25T03:13:32.410Z,83.02
2017-09-25T03:16:04.008Z,83.31
2017-09-25T03:18:38.272Z,83.44
2017-09-25T03:21:09.350Z,83.48
2017-09-25T03:28:18.150Z,83.56
2017-09-25T03:30:49.315Z,83.59
2017-09-25T03:33:20.389Z,83.66
2017-09-25T03:35:52.243Z,83.77
2017-09-25T03:38:23.686Z,83.84
2017-09-25T03:40:54.911Z,83.94
2017-09-25T03:43:26.335Z,84.05
2017-09-25T03:45:57.896Z,84.21
2017-09-25T03:48:29.084Z,84.39
2017-09-25T03:51:00.240Z,84.53
2017-09-25T03:53:32.302Z,84.71
2017-09-25T03:56:04.642Z,84.87
2017-09-25T03:58:37.505Z,85.01
2017-09-25T04:01:08.896Z,85.22
2017-09-25T04:03:40.048Z,85.33
2017-09-25T04:06:11.155Z,85.44
2017-09-25T04:08:42.299Z,85.47
2017-09-25T04:11:13.371Z,85.52
2017-09-25T04:13:44.739Z,85.63
2017-09-25T04:16:16.018Z,85.69
2017-09-25T04:18:47.134Z,85.70
2017-09-25T04:21:18.485Z,85.80
2017-09-25T04:23:49.556Z,85.89
2017-09-25T04:26:20.638Z,85.95
2017-09-25T04:28:51.767Z,86.12
2017-09-25T04:31:23.136Z,86.14
2017-09-25T04:33:54.886Z,86.15
2017-09-25T04:36:26.006Z,86.19
2017-09-25T04:38:57.047Z,86.22
2017-09-25T04:41:28.203Z,86.29
2017-09-25T04:43:59.636Z,86.20
2017-09-25T04:46:30.848Z,86.09
2017-09-25T04:49:02.400Z,86.09
2017-09-25T04:51:36.796Z,86.25
2017-09-25T04:54:08.161Z,86.40
2017-09-25T04:56:41.621Z,86.45
2017-09-25T04:59:12.881Z,86.43
2017-09-25T05:01:44.038Z,86.40
2017-09-25T05:04:15.524Z,86.36
2017-09-25T05:06:46.679Z,86.33
2017-09-25T05:09:17.781Z,86.32
2017-09-25T05:11:49.164Z,86.39
2017-09-25T05:14:20.283Z,86.36
2017-09-25T05:16:51.352Z,86.32
2017-09-25T05:19:22.770Z,86.33
2017-09-25T05:21:53.922Z,86.34
2017-09-25T05:24:25.094Z,86.24
2017-09-25T05:26:56.491Z,85.93
2017-09-25T05:29:27.686Z,85.56
2017-09-25T05:31:58.764Z,85.29
2017-09-25T05:34:30.238Z,85.08
2017-09-25T05:37:01.763Z,84.88
2017-09-25T05:39:32.956Z,84.69
2017-09-25T05:42:05.160Z,84.50
2017-09-25T05:44:37.798Z,84.35
2017-09-25T05:47:09.429Z,84.17
2017-09-25T05:49:41.396Z,84.03
2017-09-25T05:52:12.502Z,83.77
2017-09-25T05:54:43.901Z,83.48
2017-09-25T05:57:15.343Z,83.19
2017-09-25T05:59:46.730Z,82.89
2017-09-25T06:02:18.009Z,82.47
2017-09-25T06:04:49.367Z,82.07
2017-09-25T06:07:20.452Z,81.47
2017-09-25T06:09:51.543Z,80.96
2017-09-25T06:12:53.371Z,80.38
2017-09-25T06:15:25.005Z,79.69
2017-09-25T06:17:56.420Z,79.08
2017-09-25T06:20:27.563Z,78.56
2017-09-25T06:22:58.801Z,77.86
2017-09-25T06:25:30.175Z,77.00
2017-09-25T06:28:02.192Z,76.35
2017-09-25T06:30:34.582Z,75.95
2017-09-25T06:33:06.077Z,75.39
2017-09-25T06:35:38.267Z,74.98
2017-09-25T06:38:09.681Z,74.73
2017-09-25T06:40:40.907Z,74.23
2017-09-25T06:43:12.032Z,73.92
2017-09-25T06:45:43.429Z,73.43
2017-09-25T06:48:14.654Z,73.29
2017-09-25T06:50:45.755Z,73.32
2017-09-25T06:53:17.291Z,73.26
2017-09-25T06:55:48.713Z,73.21
2017-09-25T06:58:20.152Z,73.21
2017-09-25T07:00:51.396Z,73.04
2017-09-25T07:03:22.698Z,72.75
2017-09-25T07:05:54.386Z,72.36
2017-09-25T07:08:25.625Z,72.09
2017-09-25T07:10:56.860Z,71.66
2017-09-25T07:13:28.293Z,71.33
2017-09-25T07:15:59.589Z,71.24
2017-09-25T07:18:30.693Z,71.11
2017-09-25T07:21:02.031Z,70.83
2017-09-25T07:23:35.518Z,70.48
2017-09-25T07:26:11.445Z,70.07
2017-09-25T07:28:42.821Z,69.79
2017-09-25T07:31:14.216Z,69.46
2017-09-25T07:33:45.296Z,68.95
2017-09-25T07:36:18.205Z,68.59
2017-09-25T07:38:49.536Z,68.43
2017-09-25T07:41:20.593Z,67.93
2017-09-25T07:43:52.000Z,67.22
2017-09-25T07:46:23.088Z,67.15
2017-09-25T07:48:54.444Z,66.81
2017-09-25T07:51:26.554Z,66.36
2017-09-25T07:53:57.800Z,65.77
2017-09-25T07:56:29.307Z,65.53
2017-09-25T07:59:00.604Z,65.23
2017-09-25T08:01:31.935Z,64.67
2017-09-25T08:04:04.281Z,64.05
2017-09-25T08:06:38.053Z,63.23
2017-09-25T08:09:11.727Z,62.63
2017-09-25T08:11:42.957Z,62.03
2017-09-25T08:14:14.407Z,61.54
2017-09-25T08:16:45.790Z,60.94
2017-09-25T08:19:17.151Z,60.04
2017-09-25T08:21:49.093Z,59.29
2017-09-25T08:24:20.342Z,58.44
2017-09-25T08:26:51.792Z,57.89
2017-09-25T08:29:23.203Z,57.62
2017-09-25T08:31:54.502Z,57.12
2017-09-25T08:34:25.576Z,56.29
2017-09-25T08:36:56.998Z,55.70
2017-09-25T08:39:30.531Z,55.99
2017-09-25T08:42:02.560Z,55.53
2017-09-25T08:44:36.615Z,55.14
2017-09-25T08:47:10.775Z,55.66
2017-09-25T08:49:42.589Z,55.93
2017-09-25T08:52:16.328Z,55.58
2017-09-25T08:54:47.502Z,54.88
2017-09-25T08:57:18.936Z,53.57
2017-09-25T08:59:50.716Z,53.01
2017-09-25T09:02:23.645Z,51.39
2017-09-25T09:04:54.739Z,50.58
2017-09-25T09:07:26.094Z,49.97
2017-09-25T09:10:00.574Z,49.33
2017-09-25T09:12:32.983Z,47.96
2017-09-25T09:15:07.260Z,52.75
2017-09-25T09:17:40.985Z,53.57
2017-09-25T09:20:12.072Z,52.69
2017-09-25T09:22:43.457Z,50.46
2017-09-25T09:25:14.586Z,47.21
2017-09-25T09:27:45.654Z,48.74
2017-09-25T09:30:17.416Z,47.82
2017-09-25T09:32:48.621Z,48.88
2017-09-25T09:35:19.792Z,48.33
2017-09-25T09:37:51.211Z,47.79
2017-09-25T09:40:22.359Z,47.22
2017-09-25T09:42:53.570Z,46.39
2017-09-25T09:45:25.261Z,46.30
2017-09-25T09:47:56.386Z,44.64
2017-09-25T09:50:27.844Z,44.06
2017-09-25T09:52:58.943Z,39.69
2017-09-25T09:55:30.075Z,42.05
2017-09-25T09:58:01.831Z,37.99
2017-09-25T10:00:32.978Z,36.78
2017-09-25T10:03:04.694Z,38.13
2017-09-25T10:05:39.521Z,37.27
2017-09-25T10:08:10.616Z,34.09
2017-09-25T10:10:41.965Z,28.89
2017-09-25T10:13:13.459Z,28.00
2017-09-25T10:15:44.572Z,25.01
2017-09-25T10:18:15.732Z,22.34
2017-09-25T10:20:47.294Z,20.16
2017-09-25T10:23:18.453Z,17.66
2017-09-25T10:25:49.569Z,16.78
2017-09-25T10:28:21.118Z,15.72
2017-09-25T10:30:54.841Z,16.84
2017-09-25T10:33:26.148Z,15.78
2017-09-25T10:35:57.582Z,15.69
2017-09-25T10:38:28.841Z,16.16
2017-09-25T10:40:59.926Z,17.38
2017-09-25T10:43:31.437Z,15.26
2017-09-25T10:46:04.531Z,15.31
2017-09-25T10:48:37.438Z,14.47
2017-09-25T10:51:10.083Z,13.78
2017-09-25T10:53:41.178Z,12.39
2017-09-25T10:56:12.313Z,11.21
2017-09-25T10:58:43.848Z,11.03
2017-09-25T11:01:14.934Z,10.84
2017-09-25T11:03:46.040Z,10.63
2017-09-25T11:06:17.481Z,10.55
2017-09-25T11:08:48.607Z,10.40
2017-09-25T11:11:19.704Z,11.59
2017-09-25T11:13:51.132Z,11.30
2017-09-25T11:16:22.311Z,11.39
2017-09-25T11:18:53.431Z,11.40
2017-09-25T11:21:26.000Z,10.94
2017-09-25T11:23:57.306Z,10.36
2017-09-25T11:26:29.169Z,11.25
2017-09-25T11:29:00.891Z,11.31
2017-09-25T11:31:31.994Z,11.17
2017-09-25T11:34:11.257Z,12.03
2017-09-25T11:36:43.155Z,11.47
2017-09-25T11:39:14.316Z,10.87
2017-09-25T11:41:45.518Z,10.77
2017-09-25T11:44:16.957Z,10.76
2017-09-25T11:46:48.026Z,9.66
2017-09-25T11:49:19.541Z,9.89
2017-09-25T11:51:50.939Z,9.87
2017-09-25T11:54:22.449Z,10.66
2017-09-25T11:56:53.543Z,10.84
2017-09-25T11:59:24.976Z,10.24
2017-09-25T12:01:56.109Z,10.35
2017-09-25T12:04:28.135Z,9.96
2017-09-25T12:07:01.392Z,10.65
2017-09-25T12:09:32.538Z,10.42
2017-09-25T12:12:04.343Z,16.06
2017-09-25T12:14:42.244Z,21.52
2017-09-25T12:17:38.736Z,25.25
2017-09-25T12:20:21.295Z,27.05
2017-09-25T12:22:52.443Z,29.56
2017-09-25T12:25:24.789Z,30.11
2017-09-25T12:27:56.136Z,32.17
2017-09-25T12:30:27.369Z,33.57
2017-09-25T12:32:58.732Z,31.62
2017-09-25T12:35:29.886Z,30.74
2017-09-25T12:38:01.328Z,32.96
2017-09-25T12:40:32.848Z,35.82
2017-09-25T12:43:04.609Z,35.57
2017-09-25T12:45:36.508Z,36.67
2017-09-25T12:48:07.913Z,35.81
2017-09-25T12:50:41.403Z,24.34
2017-09-25T12:53:12.455Z,21.18
2017-09-25T12:55:43.795Z,20.28
2017-09-25T12:58:14.873Z,20.36
2017-09-25T13:00:45.940Z,23.17
2017-09-25T13:03:17.376Z,19.73
2017-09-25T13:05:48.659Z,15.97
2017-09-25T13:08:19.749Z,15.81
2017-09-25T13:10:52.328Z,18.46
2017-09-25T13:13:24.560Z,22.30
2017-09-25T13:15:56.049Z,24.25
2017-09-25T13:18:27.132Z,26.04
2017-09-25T13:23:54.252Z,31.63
2017-09-25T13:26:25.625Z,32.43
2017-09-25T13:28:56.694Z,35.14
2017-09-25T13:31:28.013Z,30.38
2017-09-25T13:33:59.345Z,30.90
2017-09-25T13:36:30.541Z,32.47
2017-09-25T13:39:02.592Z,32.66
2017-09-25T13:41:33.677Z,36.15
2017-09-25T13:44:05.330Z,35.67
2017-09-25T13:46:37.697Z,34.65
2017-09-25T13:49:08.791Z,38.67
2017-09-25T13:51:39.904Z,39.25
2017-09-25T13:54:11.267Z,39.80
2017-09-25T13:56:42.362Z,40.96
2017-09-25T14:04:29.048Z,42.47
2017-09-25T14:07:00.412Z,43.25
2017-09-25T14:09:32.073Z,43.90
2017-09-25T14:12:05.804Z,44.05
2017-09-25T14:14:37.354Z,44.48
2017-09-25T14:17:08.700Z,44.71
2017-09-25T14:20:42.254Z,44.31
2017-09-25T14:23:13.637Z,44.29
2017-09-25T14:25:44.726Z,44.24
2017-09-25T14:28:16.360Z,44.13
2017-09-25T14:30:49.237Z,42.74
2017-09-25T14:33:20.885Z,43.35
2017-09-25T14:35:53.396Z,43.82
2017-09-25T14:38:24.808Z,44.51
2017-09-25T14:40:56.265Z,44.59
2017-09-25T14:43:28.388Z,44.75
2017-09-25T14:45:59.598Z,45.19
2017-09-25T14:48:32.291Z,45.57
2017-09-25T14:51:04.044Z,45.78
2017-09-25T14:53:35.519Z,46.03
2017-09-25T14:56:08.104Z,46.04
2017-09-25T14:58:39.206Z,46.29
2017-09-25T15:01:13.780Z,46.35
2017-09-25T15:03:45.209Z,46.49
2017-09-25T15:06:16.600Z,46.51
2017-09-25T15:08:51.751Z,46.44
2017-09-25T15:11:23.087Z,46.39
2017-09-25T15:13:54.961Z,46.32
2017-09-25T15:16:26.079Z,46.50
2017-09-25T15:18:57.407Z,46.59
2017-09-25T15:21:31.321Z,46.60
2017-09-25T15:24:08.571Z,46.31
2017-09-25T15:26:44.062Z,46.53
2017-09-25T15:29:16.348Z,46.56
2017-09-25T15:31:50.643Z,46.36
2017-09-25T15:34:21.777Z,46.10
2017-09-25T15:36:53.260Z,46.35
2017-09-25T15:39:25.518Z,46.38
2017-09-25T15:41:56.667Z,46.52
2017-09-25T15:44:28.112Z,46.50
2017-09-25T15:46:59.327Z,46.46
2017-09-25T15:49:30.389Z,46.44
2017-09-25T15:52:02.417Z,45.98
2017-09-25T15:54:33.559Z,44.52
2017-09-25T15:57:05.346Z,42.86
2017-09-25T15:59:36.531Z,41.50
2017-09-25T16:02:08.847Z,39.27
2017-09-25T16:04:40.100Z,35.49
2017-09-25T16:07:11.164Z,34.62
2017-09-25T16:09:42.699Z,34.01
2017-09-25T16:12:13.797Z,33.88
2017-09-25T16:14:45.213Z,33.29
2017-09-25T16:17:16.577Z,32.81
2017-09-25T16:19:49.542Z,32.73
2017-09-25T16:22:21.016Z,31.62
2017-09-25T16:24:53.246Z,34.02
2017-09-25T16:27:24.334Z,37.90
2017-09-25T16:29:55.433Z,39.09
2017-09-25T16:32:26.861Z,41.17
2017-09-25T16:34:57.956Z,42.42
2017-09-25T16:37:29.049Z,43.39
2017-09-25T16:40:00.459Z,44.11
2017-09-25T16:42:31.593Z,44.88
2017-09-25T16:45:03.179Z,45.42
2017-09-25T16:47:34.556Z,45.81
2017-09-25T16:50:06.003Z,46.34
2017-09-25T16:52:37.100Z,46.83
2017-09-25T16:55:08.541Z,47.24
2017-09-25T16:57:39.678Z,47.61
2017-09-25T17:00:11.113Z,48.01
2017-09-25T17:02:42.786Z,48.32
2017-09-25T17:05:14.208Z,48.74
2017-09-25T17:07:45.306Z,49.18
2017-09-25T17:10:18.149Z,49.45
2017-09-25T17:12:51.396Z,49.59
2017-09-25T17:15:22.960Z,49.84
2017-09-25T17:17:55.597Z,50.18
2017-09-25T17:20:26.922Z,50.57
2017-09-25T17:22:58.345Z,50.52
2017-09-25T17:25:30.177Z,50.67
2017-09-25T17:28:02.392Z,50.87
2017-09-25T17:30:33.780Z,50.88
2017-09-25T17:33:05.282Z,51.10
2017-09-25T17:35:36.853Z,51.41
2017-09-25T17:38:08.779Z,51.47
2017-09-25T17:40:40.168Z,51.49
2017-09-25T17:43:11.796Z,51.57
2017-09-25T17:45:43.457Z,51.61
2017-09-25T17:48:14.795Z,51.72
2017-09-25T17:50:46.873Z,51.90
2017-09-25T17:53:18.275Z,52.22
2017-09-25T17:55:51.180Z,52.17
2017-09-25T17:58:22.934Z,51.98
2017-09-25T18:00:54.562Z,52.01
2017-09-25T18:03:25.964Z,52.22
2017-09-25T18:05:57.708Z,52.42
2017-09-25T18:08:29.114Z,52.51
2017-09-25T18:11:00.973Z,52.43
2017-09-25T18:13:32.395Z,52.79
2017-09-25T18:16:04.721Z,52.81
2017-09-25T18:18:37.209Z,52.75
2017-09-25T18:21:08.696Z,52.69
2017-09-25T18:23:39.942Z,52.87
2017-09-25T18:26:11.561Z,52.98
2017-09-25T18:28:42.958Z,53.17
2017-09-25T18:31:14.598Z,53.16
2017-09-25T18:33:47.784Z,53.23
2017-09-25T18:36:19.322Z,53.58
2017-09-25T18:38:52.443Z,53.85
2017-09-25T18:41:24.131Z,53.89
2017-09-25T18:43:55.617Z,53.88
2017-09-25T18:46:27.092Z,53.83
2017-09-25T18:49:01.278Z,53.77
2017-09-25T18:51:32.948Z,53.93
2017-09-25T18:54:05.656Z,54.06
2017-09-25T18:56:37.403Z,53.95
2017-09-25T18:59:08.697Z,54.33
2017-09-25T19:01:39.991Z,54.58
2017-09-25T19:04:11.766Z,54.73
2017-09-25T19:06:43.254Z,54.81
2017-09-25T19:09:15.100Z,54.97
2017-09-25T19:11:46.236Z,54.83
2017-09-25T19:14:17.328Z,54.94
2017-09-25T19:16:50.591Z,55.04
2017-09-25T19:19:21.723Z,54.88
2017-09-25T19:21:53.611Z,55.09
2017-09-25T19:24:24.752Z,54.85
2017-09-25T19:26:56.095Z,55.04
2017-09-25T19:29:27.525Z,55.37
2017-09-25T19:31:58.612Z,55.33
2017-09-25T19:34:29.728Z,55.43
2017-09-25T19:37:01.358Z,55.18
2017-09-25T19:39:32.790Z,55.48
2017-09-25T19:42:05.379Z,56.08
2017-09-25T19:44:36.814Z,57.59
2017-09-25T19:47:08.031Z,57.79
2017-09-25T19:49:39.504Z,57.48
2017-09-25T19:52:10.832Z,57.07
2017-09-25T19:54:42.023Z,56.81
2017-09-25T19:57:13.580Z,56.33
2017-09-25T19:59:44.767Z,56.07
2017-09-25T20:02:16.080Z,55.64
2017-09-25T20:04:50.649Z,55.81
2017-09-25T20:07:21.908Z,55.37
2017-09-25T20:09:54.606Z,55.49
2017-09-25T20:12:26.118Z,56.27
2017-09-25T20:14:57.378Z,56.89
2017-09-25T20:17:30.000Z,57.58
2017-09-25T20:20:02.043Z,57.85
2017-09-25T20:22:33.662Z,58.21
2017-09-25T20:25:07.818Z,58.66
2017-09-25T20:27:38.906Z,59.00
2017-09-25T20:30:10.483Z,59.48
2017-09-25T20:32:41.541Z,59.61
2017-09-25T20:35:12.883Z,59.94
2017-09-25T20:37:44.081Z,60.03
2017-09-25T20:40:17.007Z,60.14
2017-09-25T20:42:50.420Z,60.35
2017-09-25T20:45:22.219Z,60.46
2017-09-25T20:47:54.411Z,60.53
2017-09-25T20:50:26.525Z,60.69
2017-09-25T20:52:57.769Z,60.89
2017-09-25T20:55:29.176Z,61.00
2017-09-25T20:58:00.269Z,61.20
2017-09-25T21:00:31.407Z,61.55
2017-09-25T21:03:03.529Z,62.75
2017-09-25T21:05:34.708Z,62.58
2017-09-25T21:08:06.212Z,61.18
2017-09-25T21:10:38.012Z,60.49
2017-09-25T21:13:09.319Z,59.77
2017-09-25T21:15:41.107Z,59.35
2017-09-25T21:18:13.907Z,58.90
2017-09-25T21:20:45.065Z,58.95
2017-09-25T21:23:16.509Z,59.09
2017-09-25T21:25:48.605Z,59.70
2017-09-25T21:28:20.282Z,60.69
2017-09-25T21:30:52.634Z,61.53
2017-09-25T21:33:23.736Z,62.28
2017-09-25T21:35:55.261Z,62.75
2017-09-25T21:38:26.351Z,63.28
2017-09-25T21:40:58.822Z,63.70
2017-09-25T21:43:30.630Z,64.16
2017-09-25T21:46:02.794Z,64.51
2017-09-25T21:48:33.920Z,64.82
2017-09-25T21:51:08.099Z,65.12
2017-09-25T21:53:39.270Z,65.40
2017-09-25T21:56:10.696Z,66.48
2017-09-25T21:58:41.837Z,65.42
2017-09-25T22:04:15.404Z,65.54
2017-09-25T22:06:46.650Z,65.79
2017-09-25T22:09:18.288Z,66.05
2017-09-25T22:11:49.420Z,66.52
2017-09-25T22:14:20.732Z,66.56
2017-09-25T22:16:51.849Z,66.81
2017-09-25T22:19:22.923Z,68.11
2017-09-25T22:21:54.371Z,67.00
2017-09-25T22:24:25.470Z,65.87
2017-09-25T22:26:56.536Z,64.78
2017-09-25T22:29:27.595Z,64.75
2017-09-25T22:31:58.627Z,65.37
2017-09-25T22:34:30.743Z,67.02
2017-09-25T22:37:02.442Z,66.16
2017-09-25T22:39:35.516Z,65.77
2017-09-25T22:42:07.101Z,66.21
2017-09-25T22:44:38.599Z,66.88
2017-09-25T22:47:10.000Z,67.53
2017-09-25T22:49:41.560Z,67.95
2017-09-25T22:52:12.824Z,68.05
2017-09-25T22:54:43.993Z,67.70
2017-09-25T22:57:15.420Z,67.10
2017-09-25T22:59:46.599Z,67.49
2017-09-25T23:02:17.776Z,66.73
2017-09-25T23:04:49.338Z,66.49
2017-09-25T23:07:21.009Z,66.61
2017-09-25T23:09:53.312Z,66.66
2017-09-25T23:12:25.216Z,66.92
2017-09-25T23:14:57.018Z,67.24
2017-09-25T23:17:28.103Z,67.82
2017-09-25T23:19:59.467Z,67.00
2017-09-25T23:22:31.073Z,66.88
2017-09-25T23:25:03.193Z,67.27
2017-09-25T23:27:36.220Z,67.11
2017-09-25T23:30:08.440Z,67.29
2017-09-25T23:32:39.638Z,68.06
2017-09-25T23:35:10.719Z,67.88
2017-09-25T23:37:42.153Z,66.54
2017-09-25T23:40:14.021Z,65.48
2017-09-25T23:42:45.071Z,64.68
2017-09-25T23:45:16.939Z,64.08
2017-09-25T23:47:48.068Z,63.38
2017-09-25T23:50:19.477Z,62.82
2017-09-25T23:52:50.804Z,62.45
2017-09-25T23:55:21.885Z,62.68
2017-09-25T23:57:52.936Z,63.74
